createdAt,value
2022-10-15T00:00:59.247Z,14.70
2022-10-15T00:01:59.124Z,14.70
2022-10-15T00:02:59.112Z,14.70
2022-10-15T00:03:59.105Z,14.70
2022-10-15T00:04:59.089Z,14.70
2022-10-15T00:05:59.083Z,14.74
2022-10-15T00:06:59.066Z,14.76
2022-10-15T00:07:59.054Z,14.77
2022-10-15T00:08:59.043Z,14.76
2022-10-15T00:09:59.031Z,14.77
2022-10-15T00:10:59.018Z,14.81
2022-10-15T00:11:59.034Z,14.78
2022-10-15T00:12:59.043Z,14.76
2022-10-15T00:13:58.987Z,14.77
2022-10-15T00:14:58.988Z,14.78
2022-10-15T00:15:58.960Z,14.78
2022-10-15T00:16:58.960Z,14.82
2022-10-15T00:17:58.939Z,14.82
2022-10-15T00:18:58.926Z,14.82
2022-10-15T00:19:58.916Z,14.82
2022-10-15T00:20:58.904Z,14.84
2022-10-15T00:21:58.986Z,14.82
2022-10-15T00:22:58.888Z,14.81
2022-10-15T00:23:58.868Z,14.82
2022-10-15T00:24:58.861Z,14.81
2022-10-15T00:25:58.846Z,14.81
2022-10-15T00:26:58.835Z,14.76
2022-10-15T00:27:58.845Z,14.76
2022-10-15T00:28:58.890Z,14.76
2022-10-15T00:29:58.800Z,14.77
2022-10-15T00:30:58.910Z,14.73
2022-10-15T00:31:58.779Z,14.67
2022-10-15T00:32:58.768Z,14.67
2022-10-15T00:33:58.759Z,14.66
2022-10-15T00:34:58.750Z,14.64
2022-10-15T00:35:58.730Z,14.61
2022-10-15T00:36:58.718Z,14.64
2022-10-15T00:37:58.711Z,14.67
2022-10-15T00:39:00.693Z,14.67
2022-10-15T00:39:58.738Z,14.67
2022-10-15T00:40:58.681Z,14.66
2022-10-15T00:41:58.661Z,14.63
2022-10-15T00:42:58.655Z,14.59
2022-10-15T00:43:58.663Z,14.56
2022-10-15T00:44:58.626Z,14.53
2022-10-15T00:45:58.623Z,14.52
2022-10-15T00:46:58.604Z,14.51
2022-10-15T00:47:58.594Z,14.52
2022-10-15T00:48:58.621Z,14.53
2022-10-15T00:49:58.568Z,14.51
2022-10-15T00:50:58.563Z,14.49
2022-10-15T00:51:58.550Z,14.51
2022-10-15T00:52:58.533Z,14.55
2022-10-15T00:53:58.521Z,14.56
2022-10-15T00:54:58.511Z,14.51
2022-10-15T00:55:58.497Z,14.51
2022-10-15T00:56:58.488Z,14.52
2022-10-15T00:57:58.475Z,14.52
2022-10-15T00:58:58.468Z,14.48
2022-10-15T00:59:58.481Z,14.49
2022-10-15T01:00:58.533Z,14.48
2022-10-15T01:01:58.436Z,14.48
2022-10-15T01:02:58.429Z,14.45
2022-10-15T01:03:58.407Z,14.45
2022-10-15T01:04:58.394Z,14.41
2022-10-15T01:05:58.384Z,14.44
2022-10-15T01:06:58.371Z,14.44
2022-10-15T01:07:58.360Z,14.44
2022-10-15T01:08:58.349Z,14.46
2022-10-15T01:09:58.337Z,14.48
2022-10-15T01:10:58.333Z,14.45
2022-10-15T01:11:58.316Z,14.45
2022-10-15T01:12:58.307Z,14.45
2022-10-15T01:13:58.289Z,14.44
2022-10-15T01:14:58.280Z,14.44
2022-10-15T01:15:58.288Z,14.41
2022-10-15T01:16:58.257Z,14.38
2022-10-15T01:18:00.267Z,14.36
2022-10-15T01:18:58.238Z,14.37
2022-10-15T01:19:58.222Z,14.37
2022-10-15T01:20:58.213Z,14.37
2022-10-15T01:21:58.206Z,14.38
2022-10-15T01:22:58.191Z,14.40
2022-10-15T01:23:58.187Z,14.38
2022-10-15T01:24:58.164Z,14.37
2022-10-15T01:25:58.153Z,14.37
2022-10-15T01:26:58.141Z,14.37
2022-10-15T01:27:58.130Z,14.38
2022-10-15T01:28:58.179Z,14.40
2022-10-15T01:29:58.113Z,14.41
2022-10-15T01:30:58.099Z,14.44
2022-10-15T01:31:58.114Z,14.45
2022-10-15T01:32:58.080Z,14.44
2022-10-15T01:33:58.068Z,14.44
2022-10-15T01:34:58.055Z,14.45
2022-10-15T01:36:00.130Z,14.44
2022-10-15T01:36:58.028Z,14.45
2022-10-15T01:37:58.022Z,14.48
2022-10-15T01:38:58.004Z,14.49
2022-10-15T01:39:57.993Z,14.49
2022-10-15T01:40:57.984Z,14.48
2022-10-15T01:41:57.970Z,14.48
2022-10-15T01:42:57.959Z,14.46
2022-10-15T01:43:57.954Z,14.49
2022-10-15T01:44:57.945Z,14.52
2022-10-15T01:45:57.930Z,14.53
2022-10-15T01:46:57.912Z,14.52
2022-10-15T01:47:57.923Z,14.52
2022-10-15T01:48:57.890Z,14.49
2022-10-15T01:49:57.880Z,14.48
2022-10-15T01:50:57.867Z,14.45
2022-10-15T01:51:57.857Z,14.41
2022-10-15T01:52:57.844Z,14.40
2022-10-15T01:53:57.838Z,14.45
2022-10-15T01:54:57.837Z,14.46
2022-10-15T01:55:57.817Z,14.45
2022-10-15T01:56:57.803Z,14.46
2022-10-15T01:57:57.789Z,14.45
2022-10-15T01:58:57.782Z,14.44
2022-10-15T01:59:57.823Z,14.45
2022-10-15T02:00:57.843Z,14.44
2022-10-15T02:01:58.241Z,14.46
2022-10-15T02:02:57.739Z,14.45
2022-10-15T02:03:57.743Z,14.44
2022-10-15T02:04:57.716Z,14.45
2022-10-15T02:05:57.726Z,14.44
2022-10-15T02:06:57.681Z,14.40
2022-10-15T02:07:57.674Z,14.40
2022-10-15T02:08:57.763Z,14.38
2022-10-15T02:09:57.655Z,14.34
2022-10-15T02:10:57.637Z,14.30
2022-10-15T02:11:57.623Z,14.33
2022-10-15T02:12:57.611Z,14.34
2022-10-15T02:13:57.600Z,14.34
2022-10-15T02:14:57.587Z,14.31
2022-10-15T02:15:57.576Z,14.31
2022-10-15T02:16:57.564Z,14.31
2022-10-15T02:17:57.553Z,14.36
2022-10-15T02:18:57.547Z,14.37
2022-10-15T02:20:57.525Z,14.40
2022-10-15T02:21:57.515Z,14.40
2022-10-15T02:22:57.495Z,14.41
2022-10-15T02:23:57.483Z,14.41
2022-10-15T02:24:57.471Z,14.40
2022-10-15T02:25:57.461Z,14.38
2022-10-15T02:26:57.464Z,14.40
2022-10-15T02:27:57.438Z,14.40
2022-10-15T02:28:57.547Z,14.37
2022-10-15T02:29:57.419Z,14.37
2022-10-15T02:30:57.403Z,14.37
2022-10-15T02:31:57.397Z,14.36
2022-10-15T02:32:57.379Z,14.36
2022-10-15T02:33:57.369Z,14.34
2022-10-15T02:34:57.359Z,14.37
2022-10-15T02:35:57.371Z,14.36
2022-10-15T02:36:57.335Z,14.34
2022-10-15T02:37:57.326Z,14.34
2022-10-15T02:38:57.314Z,14.31
2022-10-15T02:39:57.300Z,14.28
2022-10-15T02:40:57.292Z,14.27
2022-10-15T02:41:57.276Z,14.26
2022-10-15T02:42:57.269Z,14.27
2022-10-15T02:43:57.264Z,14.28
2022-10-15T02:44:57.242Z,14.27
2022-10-15T02:45:57.232Z,14.28
2022-10-15T02:46:57.220Z,14.27
2022-10-15T02:47:57.207Z,14.28
2022-10-15T02:48:57.198Z,14.28
2022-10-15T02:49:57.184Z,14.26
2022-10-15T02:50:57.173Z,14.23
2022-10-15T02:51:57.188Z,14.23
2022-10-15T02:52:57.149Z,14.23
2022-10-15T02:53:57.142Z,14.23
2022-10-15T02:54:57.126Z,14.23
2022-10-15T02:55:57.116Z,14.26
2022-10-15T02:56:57.121Z,14.23
2022-10-15T02:57:57.091Z,14.23
2022-10-15T02:58:57.082Z,14.26
2022-10-15T02:59:57.075Z,14.28
2022-10-15T03:00:57.103Z,14.28
2022-10-15T03:01:57.051Z,14.28
2022-10-15T03:02:57.035Z,14.26
2022-10-15T03:03:57.023Z,14.27
2022-10-15T03:04:57.011Z,14.26
2022-10-15T03:05:56.998Z,14.26
2022-10-15T03:06:56.988Z,14.26
2022-10-15T03:07:57.000Z,14.27
2022-10-15T03:08:56.964Z,14.28
2022-10-15T03:09:56.958Z,14.30
2022-10-15T03:10:56.949Z,14.31
2022-10-15T03:11:56.930Z,14.33
2022-10-15T03:12:56.920Z,14.30
2022-10-15T03:13:56.907Z,14.31
2022-10-15T03:14:56.895Z,14.31
2022-10-15T03:15:56.884Z,14.33
2022-10-15T03:16:56.873Z,14.33
2022-10-15T03:17:56.862Z,14.33
2022-10-15T03:18:56.861Z,14.30
2022-10-15T03:19:56.837Z,14.27
2022-10-15T03:20:56.832Z,14.28
2022-10-15T03:21:56.816Z,14.30
2022-10-15T03:22:56.803Z,14.27
2022-10-15T03:23:56.818Z,14.27
2022-10-15T03:24:56.780Z,14.23
2022-10-15T03:25:56.780Z,14.23
2022-10-15T03:26:56.759Z,14.26
2022-10-15T03:27:56.746Z,14.27
2022-10-15T03:28:56.809Z,14.27
2022-10-15T03:29:56.728Z,14.27
2022-10-15T03:30:56.713Z,14.26
2022-10-15T03:31:56.699Z,14.22
2022-10-15T03:32:56.688Z,14.22
2022-10-15T03:33:56.675Z,14.23
2022-10-15T03:34:56.695Z,14.28
2022-10-15T03:35:56.653Z,14.30
2022-10-15T03:36:56.641Z,14.26
2022-10-15T03:37:56.630Z,14.26
2022-10-15T03:38:56.619Z,14.23
2022-10-15T03:39:56.631Z,14.22
2022-10-15T03:40:56.601Z,14.21
2022-10-15T03:41:56.585Z,14.19
2022-10-15T03:42:56.582Z,14.19
2022-10-15T03:43:56.570Z,14.19
2022-10-15T03:44:56.551Z,14.19
2022-10-15T03:45:56.543Z,14.21
2022-10-15T03:46:56.527Z,14.21
2022-10-15T03:47:56.518Z,14.22
2022-10-15T03:48:56.505Z,14.23
2022-10-15T03:49:56.493Z,14.22
2022-10-15T03:50:56.488Z,14.23
2022-10-15T03:51:56.469Z,14.23
2022-10-15T03:52:56.458Z,14.26
2022-10-15T03:53:56.447Z,14.23
2022-10-15T03:54:56.435Z,14.23
2022-10-15T03:55:56.452Z,14.23
2022-10-15T03:56:56.418Z,14.26
2022-10-15T03:57:56.403Z,14.23
2022-10-15T03:58:56.389Z,14.23
2022-10-15T03:59:56.378Z,14.22
2022-10-15T04:00:56.516Z,14.22
2022-10-15T04:01:56.358Z,14.23
2022-10-15T04:02:56.342Z,14.22
2022-10-15T04:03:56.338Z,14.23
2022-10-15T04:04:56.322Z,14.22
2022-10-15T04:05:57.697Z,14.22
2022-10-15T04:06:56.298Z,14.21
2022-10-15T04:07:56.284Z,14.21
2022-10-15T04:08:56.278Z,14.19
2022-10-15T04:09:56.266Z,14.19
2022-10-15T04:10:56.249Z,14.19
2022-10-15T04:11:56.267Z,14.21
2022-10-15T04:12:56.234Z,14.23
2022-10-15T04:13:56.228Z,14.22
2022-10-15T04:14:56.202Z,14.22
2022-10-15T04:15:56.195Z,14.21
2022-10-15T04:16:56.184Z,14.22
2022-10-15T04:17:56.172Z,14.23
2022-10-15T04:18:56.155Z,14.23
2022-10-15T04:19:56.148Z,14.23
2022-10-15T04:20:56.139Z,14.23
2022-10-15T04:21:56.124Z,14.23
2022-10-15T04:22:56.115Z,14.22
2022-10-15T04:23:56.099Z,14.23
2022-10-15T04:24:56.086Z,14.22
2022-10-15T04:25:56.075Z,14.22
2022-10-15T04:26:56.072Z,14.19
2022-10-15T04:27:56.076Z,14.19
2022-10-15T04:28:56.141Z,14.21
2022-10-15T04:29:56.030Z,14.22
2022-10-15T04:30:56.024Z,14.19
2022-10-15T04:31:56.005Z,14.18
2022-10-15T04:32:55.995Z,14.16
2022-10-15T04:33:55.984Z,14.19
2022-10-15T04:34:55.971Z,14.21
2022-10-15T04:35:55.969Z,14.19
2022-10-15T04:36:55.947Z,14.19
2022-10-15T04:37:55.946Z,14.19
2022-10-15T04:38:55.924Z,14.19
2022-10-15T04:39:55.914Z,14.21
2022-10-15T04:40:55.905Z,14.21
2022-10-15T04:41:55.896Z,14.19
2022-10-15T04:42:55.879Z,14.22
2022-10-15T04:43:55.893Z,14.23
2022-10-15T04:44:55.857Z,14.21
2022-10-15T04:45:55.857Z,14.21
2022-10-15T04:46:55.841Z,14.21
2022-10-15T04:47:55.824Z,14.21
2022-10-15T04:48:55.817Z,14.23
2022-10-15T04:49:55.798Z,14.23
2022-10-15T04:50:55.791Z,14.21
2022-10-15T04:51:55.784Z,14.16
2022-10-15T04:52:55.766Z,14.16
2022-10-15T04:53:55.753Z,14.15
2022-10-15T04:54:55.747Z,14.13
2022-10-15T04:55:55.727Z,14.12
2022-10-15T04:56:55.720Z,14.11
2022-10-15T04:57:55.705Z,14.09
2022-10-15T04:58:55.694Z,14.11
2022-10-15T04:59:57.799Z,14.11
2022-10-15T05:00:55.678Z,14.09
2022-10-15T05:01:55.722Z,14.09
2022-10-15T05:02:55.658Z,14.11
2022-10-15T05:03:55.636Z,14.12
2022-10-15T05:04:55.631Z,14.13
2022-10-15T05:05:55.613Z,14.13
2022-10-15T05:06:57.600Z,14.13
2022-10-15T05:07:57.591Z,14.13
2022-10-15T05:08:55.577Z,14.15
2022-10-15T05:09:55.567Z,14.18
2022-10-15T05:10:55.555Z,14.19
2022-10-15T05:11:55.542Z,14.18
2022-10-15T05:12:56.848Z,14.15
2022-10-15T05:13:55.519Z,14.16
2022-10-15T05:14:55.508Z,14.13
2022-10-15T05:15:55.587Z,14.15
2022-10-15T05:16:55.514Z,14.12
2022-10-15T05:17:55.491Z,14.12
2022-10-15T05:18:57.465Z,14.13
2022-10-15T05:19:55.455Z,14.12
2022-10-15T05:20:55.445Z,14.12
2022-10-15T05:21:55.436Z,14.12
2022-10-15T05:22:57.413Z,14.15
2022-10-15T05:23:55.406Z,14.15
2022-10-15T05:24:55.393Z,14.18
2022-10-15T05:25:57.381Z,14.18
2022-10-15T05:26:55.373Z,14.18
2022-10-15T05:27:55.356Z,14.19
2022-10-15T05:28:55.491Z,14.22
2022-10-15T05:29:57.339Z,14.22
2022-10-15T05:30:55.322Z,14.22
2022-10-15T05:31:55.333Z,14.23
2022-10-15T05:32:55.301Z,14.26
2022-10-15T05:33:55.287Z,14.23
2022-10-15T05:34:55.281Z,14.27
2022-10-15T05:35:55.273Z,14.26
2022-10-15T05:36:55.252Z,14.28
2022-10-15T05:37:55.248Z,14.30
2022-10-15T05:38:55.229Z,14.30
2022-10-15T05:39:55.218Z,14.31
2022-10-15T05:40:55.211Z,14.33
2022-10-15T05:41:57.193Z,14.33
2022-10-15T05:42:55.188Z,14.30
2022-10-15T05:43:57.176Z,14.28
2022-10-15T05:44:55.161Z,14.31
2022-10-15T05:45:55.156Z,14.31
2022-10-15T05:46:55.136Z,14.31
2022-10-15T05:47:57.149Z,14.31
2022-10-15T05:48:55.119Z,14.33
2022-10-15T05:49:55.101Z,14.33
2022-10-15T05:50:55.092Z,14.36
2022-10-15T05:52:55.068Z,14.38
2022-10-15T05:53:55.057Z,14.38
2022-10-15T05:54:55.045Z,14.40
2022-10-15T05:55:55.032Z,14.41
2022-10-15T05:56:55.022Z,14.44
2022-10-15T05:57:55.010Z,14.44
2022-10-15T05:58:55.001Z,14.45
2022-10-15T05:59:54.987Z,14.45
2022-10-15T06:00:54.979Z,14.48
2022-10-15T06:01:55.003Z,14.48
2022-10-15T06:02:54.968Z,14.48
2022-10-15T06:03:54.972Z,14.46
2022-10-15T06:04:54.928Z,14.49
2022-10-15T06:05:54.921Z,14.49
2022-10-15T06:06:54.910Z,14.49
2022-10-15T06:07:54.893Z,14.52
2022-10-15T06:08:54.885Z,14.53
2022-10-15T06:09:54.870Z,14.55
2022-10-15T06:10:54.859Z,14.56
2022-10-15T06:11:54.847Z,14.56
2022-10-15T06:12:54.835Z,14.58
2022-10-15T06:13:54.825Z,14.58
2022-10-15T06:14:54.818Z,14.58
2022-10-15T06:15:54.801Z,14.56
2022-10-15T06:16:54.793Z,14.56
2022-10-15T06:17:54.784Z,14.59
2022-10-15T06:18:54.777Z,14.61
2022-10-15T06:19:54.786Z,14.64
2022-10-15T06:20:54.743Z,14.66
2022-10-15T06:21:54.730Z,14.66
2022-10-15T06:22:54.724Z,14.66
2022-10-15T06:23:54.708Z,14.67
2022-10-15T06:24:54.702Z,14.70
2022-10-15T06:25:54.690Z,14.71
2022-10-15T06:26:54.675Z,14.73
2022-10-15T06:27:54.662Z,14.77
2022-10-15T06:28:54.721Z,14.78
2022-10-15T06:29:54.640Z,14.85
2022-10-15T06:30:54.631Z,14.88
2022-10-15T06:31:54.615Z,14.88
2022-10-15T06:32:54.606Z,14.89
2022-10-15T06:33:54.600Z,14.91
2022-10-15T06:34:54.587Z,14.96
2022-10-15T06:35:54.593Z,15.00
2022-10-15T06:36:54.557Z,14.98
2022-10-15T06:37:57.105Z,15.02
2022-10-15T06:38:54.539Z,15.09
2022-10-15T06:39:54.524Z,15.13
2022-10-15T06:40:54.518Z,15.19
2022-10-15T06:41:54.500Z,15.25
2022-10-15T06:42:54.494Z,15.25
2022-10-15T06:43:54.592Z,15.34
2022-10-15T06:44:54.465Z,15.42
2022-10-15T06:45:54.454Z,15.50
2022-10-15T06:46:54.443Z,15.51
2022-10-15T06:47:54.432Z,15.56
2022-10-15T06:48:54.424Z,15.62
2022-10-15T06:49:54.414Z,15.63
2022-10-15T06:50:54.401Z,15.60
2022-10-15T06:51:54.406Z,15.56
2022-10-15T06:52:54.405Z,15.52
2022-10-15T06:53:54.363Z,15.58
2022-10-15T06:54:54.352Z,15.59
2022-10-15T06:55:54.343Z,15.62
2022-10-15T06:56:54.335Z,15.63
2022-10-15T06:57:54.319Z,15.63
2022-10-15T06:58:54.314Z,15.60
2022-10-15T06:59:54.305Z,15.58
2022-10-15T07:00:54.284Z,15.56
2022-10-15T07:01:54.279Z,15.52
2022-10-15T07:02:54.267Z,15.51
2022-10-15T07:03:54.249Z,15.51
2022-10-15T07:04:54.241Z,15.52
2022-10-15T07:05:54.226Z,15.58
2022-10-15T07:06:54.218Z,15.69
2022-10-15T07:07:54.226Z,15.99
2022-10-15T07:08:54.191Z,16.45
2022-10-15T07:09:54.185Z,16.78
2022-10-15T07:10:54.169Z,16.97
2022-10-15T07:11:54.158Z,17.06
2022-10-15T07:12:54.148Z,17.16
2022-10-15T07:13:54.137Z,17.35
2022-10-15T07:14:54.124Z,17.32
2022-10-15T07:15:54.196Z,17.07
2022-10-15T07:16:54.102Z,16.79
2022-10-15T07:17:54.095Z,16.68
2022-10-15T07:18:54.081Z,16.64
2022-10-15T07:19:54.070Z,16.56
2022-10-15T07:20:54.056Z,16.42
2022-10-15T07:21:54.047Z,16.28
2022-10-15T07:22:54.034Z,16.20
2022-10-15T07:23:54.048Z,16.14
2022-10-15T07:24:54.014Z,16.09
2022-10-15T07:25:54.001Z,16.13
2022-10-15T07:26:53.996Z,16.18
2022-10-15T07:27:53.978Z,16.23
2022-10-15T07:28:54.042Z,16.27
2022-10-15T07:29:53.966Z,16.23
2022-10-15T07:30:53.944Z,16.18
2022-10-15T07:31:54.042Z,16.21
2022-10-15T07:32:53.928Z,16.23
2022-10-15T07:33:53.911Z,16.31
2022-10-15T07:34:53.900Z,16.35
2022-10-15T07:35:53.893Z,16.50
2022-10-15T07:36:53.882Z,16.72
2022-10-15T07:37:53.866Z,17.37
2022-10-15T07:38:53.996Z,18.01
2022-10-15T07:39:53.986Z,18.54
2022-10-15T07:40:53.833Z,18.86
2022-10-15T07:41:53.824Z,19.22
2022-10-15T07:42:53.811Z,19.34
2022-10-15T07:43:53.800Z,19.41
2022-10-15T07:44:53.790Z,19.77
2022-10-15T07:45:53.776Z,19.97
2022-10-15T07:46:53.767Z,20.15
2022-10-15T07:47:53.761Z,20.64
2022-10-15T07:48:53.742Z,21.02
2022-10-15T07:49:53.737Z,21.53
2022-10-15T07:50:53.728Z,22.05
2022-10-15T07:51:53.708Z,22.05
2022-10-15T07:52:53.697Z,22.12
2022-10-15T07:53:53.687Z,22.33
2022-10-15T07:54:53.675Z,22.64
2022-10-15T07:55:53.688Z,22.73
2022-10-15T07:56:53.651Z,22.86
2022-10-15T07:57:53.642Z,22.86
2022-10-15T07:58:53.637Z,23.15
2022-10-15T07:59:53.620Z,23.55
2022-10-15T08:00:53.611Z,23.99
2022-10-15T08:01:53.605Z,24.34
2022-10-15T08:02:53.585Z,24.68
2022-10-15T08:03:53.581Z,24.93
2022-10-15T08:04:53.574Z,25.05
2022-10-15T08:05:53.558Z,25.08
2022-10-15T08:06:53.541Z,24.88
2022-10-15T08:07:53.530Z,24.88
2022-10-15T08:08:53.519Z,24.85
2022-10-15T08:09:53.512Z,25.10
2022-10-15T08:10:53.495Z,24.68
2022-10-15T08:11:53.516Z,23.75
2022-10-15T08:12:53.479Z,22.59
2022-10-15T08:13:53.462Z,21.89
2022-10-15T08:14:53.456Z,21.59
2022-10-15T08:15:56.310Z,21.51
2022-10-15T08:16:53.426Z,21.47
2022-10-15T08:17:53.419Z,21.62
2022-10-15T08:18:53.408Z,21.90
2022-10-15T08:19:53.398Z,22.51
2022-10-15T08:20:53.389Z,22.68
2022-10-15T08:21:53.371Z,22.61
2022-10-15T08:22:53.358Z,22.22
2022-10-15T08:23:53.347Z,22.14
2022-10-15T08:24:53.338Z,22.10
2022-10-15T08:25:53.324Z,22.24
2022-10-15T08:26:53.313Z,22.55
2022-10-15T08:27:53.324Z,22.99
2022-10-15T08:28:53.363Z,23.36
2022-10-15T08:29:53.284Z,23.60
2022-10-15T08:30:53.273Z,23.63
2022-10-15T08:31:53.255Z,23.75
2022-10-15T08:32:53.246Z,23.90
2022-10-15T08:33:53.238Z,24.08
2022-10-15T08:34:53.231Z,24.15
2022-10-15T08:35:53.213Z,24.13
2022-10-15T08:36:53.201Z,24.19
2022-10-15T08:37:53.188Z,24.29
2022-10-15T08:38:53.226Z,24.33
2022-10-15T08:39:53.217Z,24.44
2022-10-15T08:40:53.156Z,24.43
2022-10-15T08:41:53.144Z,24.47
2022-10-15T08:42:53.133Z,24.66
2022-10-15T08:43:53.144Z,25.02
2022-10-15T08:44:53.137Z,25.32
2022-10-15T08:45:53.101Z,25.51
2022-10-15T08:46:53.088Z,25.53
2022-10-15T08:47:53.081Z,25.86
2022-10-15T08:48:53.070Z,25.96
2022-10-15T08:49:53.057Z,25.95
2022-10-15T08:50:54.079Z,25.56
2022-10-15T08:51:53.034Z,25.33
2022-10-15T08:52:53.027Z,25.78
2022-10-15T08:53:53.018Z,26.14
2022-10-15T08:54:53.001Z,26.66
2022-10-15T08:55:52.995Z,26.93
2022-10-15T08:56:52.977Z,27.08
2022-10-15T08:57:52.968Z,27.40
2022-10-15T08:58:52.963Z,27.79
2022-10-15T08:59:52.967Z,27.75
2022-10-15T09:00:52.934Z,27.63
2022-10-15T09:01:52.924Z,27.63
2022-10-15T09:02:52.984Z,27.60
2022-10-15T09:03:52.903Z,27.26
2022-10-15T09:04:52.893Z,27.01
2022-10-15T09:05:52.877Z,26.89
2022-10-15T09:06:52.871Z,26.69
2022-10-15T09:07:54.486Z,26.41
2022-10-15T09:08:52.844Z,26.15
2022-10-15T09:09:52.835Z,26.08
2022-10-15T09:10:52.824Z,25.89
2022-10-15T09:11:52.813Z,25.68
2022-10-15T09:12:52.801Z,25.46
2022-10-15T09:13:52.789Z,25.30
2022-10-15T09:14:55.677Z,25.15
2022-10-15T09:15:52.802Z,25.00
2022-10-15T09:16:52.754Z,24.80
2022-10-15T09:17:52.751Z,24.52
2022-10-15T09:18:52.737Z,24.37
2022-10-15T09:19:52.723Z,24.29
2022-10-15T09:20:52.717Z,24.22
2022-10-15T09:21:52.711Z,24.03
2022-10-15T09:22:52.690Z,23.95
2022-10-15T09:23:52.684Z,23.80
2022-10-15T09:24:52.667Z,23.66
2022-10-15T09:25:52.655Z,23.58
2022-10-15T09:26:52.646Z,23.48
2022-10-15T09:27:52.633Z,23.22
2022-10-15T09:28:52.753Z,23.03
2022-10-15T09:29:52.613Z,22.91
2022-10-15T09:30:52.600Z,22.93
2022-10-15T09:31:52.646Z,22.93
2022-10-15T09:32:54.382Z,22.92
2022-10-15T09:33:52.567Z,22.95
2022-10-15T09:34:52.560Z,23.03
2022-10-15T09:35:52.545Z,22.99
2022-10-15T09:36:52.543Z,22.98
2022-10-15T09:37:52.524Z,22.99
2022-10-15T09:38:52.513Z,23.04
2022-10-15T09:39:52.501Z,23.08
2022-10-15T09:40:52.491Z,23.01
2022-10-15T09:41:52.481Z,22.98
2022-10-15T09:42:52.486Z,22.93
2022-10-15T09:43:52.458Z,23.01
2022-10-15T09:44:52.450Z,23.04
2022-10-15T09:45:52.434Z,23.11
2022-10-15T09:46:52.433Z,23.11
2022-10-15T09:47:52.444Z,23.13
2022-10-15T09:48:52.400Z,23.26
2022-10-15T09:49:52.393Z,23.48
2022-10-15T09:50:52.376Z,24.28
2022-10-15T09:51:52.367Z,25.32
2022-10-15T09:52:52.356Z,26.27
2022-10-15T09:53:52.344Z,26.56
2022-10-15T09:54:52.331Z,25.83
2022-10-15T09:55:52.325Z,25.52
2022-10-15T09:56:52.309Z,25.36
2022-10-15T09:57:52.301Z,25.02
2022-10-15T09:58:52.297Z,24.88
2022-10-15T09:59:52.283Z,24.93
2022-10-15T10:00:52.272Z,25.02
2022-10-15T10:01:52.369Z,24.99
2022-10-15T10:02:52.245Z,24.93
2022-10-15T10:03:52.264Z,24.93
2022-10-15T10:04:52.222Z,24.92
2022-10-15T10:05:52.211Z,24.88
2022-10-15T10:06:52.208Z,24.71
2022-10-15T10:07:52.190Z,24.60
2022-10-15T10:08:52.180Z,24.53
2022-10-15T10:09:52.168Z,24.43
2022-10-15T10:10:52.158Z,24.31
2022-10-15T10:11:52.149Z,24.18
2022-10-15T10:12:52.141Z,23.95
2022-10-15T10:13:52.123Z,23.75
2022-10-15T10:14:52.112Z,23.65
2022-10-15T10:15:57.472Z,23.51
2022-10-15T10:16:52.090Z,23.44
2022-10-15T10:17:52.078Z,23.38
2022-10-15T10:18:52.067Z,23.23
2022-10-15T10:19:52.082Z,23.22
2022-10-15T10:20:52.050Z,23.21
2022-10-15T10:21:52.033Z,23.23
2022-10-15T10:22:52.064Z,23.17
2022-10-15T10:23:52.019Z,23.01
2022-10-15T10:24:52.014Z,22.85
2022-10-15T10:25:51.986Z,22.45
2022-10-15T10:26:52.048Z,22.33
2022-10-15T10:27:51.966Z,22.29
2022-10-15T10:28:56.625Z,22.15
2022-10-15T10:29:52.009Z,22.05
2022-10-15T10:30:51.934Z,22.06
2022-10-15T10:31:51.926Z,22.11
2022-10-15T10:32:51.910Z,22.20
2022-10-15T10:33:51.897Z,22.22
2022-10-15T10:34:52.985Z,22.24
2022-10-15T10:35:51.903Z,22.29
2022-10-15T10:36:51.869Z,22.33
2022-10-15T10:37:51.859Z,22.40
2022-10-15T10:38:51.842Z,22.48
2022-10-15T10:39:51.837Z,22.59
2022-10-15T10:40:51.819Z,22.73
2022-10-15T10:41:51.816Z,22.76
2022-10-15T10:42:51.805Z,22.78
2022-10-15T10:43:51.787Z,22.52
2022-10-15T10:44:51.782Z,22.47
2022-10-15T10:45:51.764Z,22.22
2022-10-15T10:46:51.752Z,21.87
2022-10-15T10:47:51.744Z,21.59
2022-10-15T10:48:51.729Z,21.35
2022-10-15T10:49:51.720Z,21.22
2022-10-15T10:50:51.709Z,21.18
2022-10-15T10:51:51.720Z,21.25
2022-10-15T10:52:51.687Z,21.38
2022-10-15T10:53:51.685Z,21.53
2022-10-15T10:54:51.665Z,21.66
2022-10-15T10:55:51.656Z,21.81
2022-10-15T10:56:51.642Z,21.89
2022-10-15T10:57:51.628Z,22.03
2022-10-15T10:58:51.619Z,22.15
2022-10-15T10:59:51.607Z,22.26
2022-10-15T11:00:51.658Z,22.35
2022-10-15T11:01:51.591Z,22.42
2022-10-15T11:02:51.574Z,22.50
2022-10-15T11:03:51.561Z,22.48
2022-10-15T11:04:51.550Z,22.24
2022-10-15T11:05:51.539Z,21.81
2022-10-15T11:06:51.528Z,21.43
2022-10-15T11:07:51.545Z,21.12
2022-10-15T11:08:51.510Z,21.00
2022-10-15T11:09:55.279Z,20.88
2022-10-15T11:10:51.482Z,20.70
2022-10-15T11:11:51.478Z,20.55
2022-10-15T11:12:51.462Z,20.36
2022-10-15T11:13:51.448Z,20.23
2022-10-15T11:14:51.438Z,20.17
2022-10-15T11:15:51.428Z,20.26
2022-10-15T11:16:51.417Z,20.42
2022-10-15T11:17:51.411Z,20.57
2022-10-15T11:18:51.395Z,20.55
2022-10-15T11:20:12.138Z,20.62
2022-10-15T11:20:58.712Z,20.74
2022-10-15T11:21:51.361Z,20.91
2022-10-15T11:22:51.356Z,21.03
2022-10-15T11:23:51.361Z,20.85
2022-10-15T11:25:06.021Z,20.73
2022-10-15T11:25:51.323Z,20.74
2022-10-15T11:27:06.347Z,20.66
2022-10-15T11:27:51.293Z,20.72
2022-10-15T11:28:51.337Z,20.87
2022-10-15T11:29:51.272Z,20.96
2022-10-15T11:30:51.260Z,21.12
2022-10-15T11:32:01.982Z,21.37
2022-10-15T11:33:08.296Z,21.44
2022-10-15T11:33:51.232Z,21.55
2022-10-15T11:34:51.215Z,21.73
2022-10-15T11:35:53.734Z,22.39
2022-10-15T11:36:51.192Z,22.68
2022-10-15T11:37:51.184Z,23.03
2022-10-15T11:38:51.178Z,23.62
2022-10-15T11:39:51.184Z,23.93
2022-10-15T11:40:51.153Z,24.26
2022-10-15T11:41:51.135Z,24.74
2022-10-15T11:42:51.124Z,24.68
2022-10-15T11:43:51.120Z,24.22
2022-10-15T11:44:51.105Z,23.84
2022-10-15T11:45:51.093Z,24.44
2022-10-15T11:46:51.084Z,24.70
2022-10-15T11:47:51.069Z,25.17
2022-10-15T11:48:51.062Z,24.78
2022-10-15T11:49:51.053Z,24.10
2022-10-15T11:50:51.038Z,23.59
2022-10-15T11:51:51.032Z,22.89
2022-10-15T11:52:51.023Z,22.48
2022-10-15T11:53:51.003Z,22.47
2022-10-15T11:54:50.991Z,22.30
2022-10-15T11:55:51.022Z,22.20
2022-10-15T11:56:50.972Z,22.15
2022-10-15T11:57:50.961Z,22.22
2022-10-15T11:58:50.980Z,22.37
2022-10-15T11:59:50.937Z,22.52
2022-10-15T12:00:50.929Z,23.18
2022-10-15T12:01:50.913Z,23.93
2022-10-15T12:02:50.906Z,24.73
2022-10-15T12:03:50.952Z,25.45
2022-10-15T12:04:50.884Z,26.10
2022-10-15T12:05:50.875Z,25.86
2022-10-15T12:06:50.856Z,24.84
2022-10-15T12:07:50.844Z,23.87
2022-10-15T12:08:50.836Z,23.55
2022-10-15T12:09:50.825Z,23.13
2022-10-15T12:10:50.813Z,22.52
2022-10-15T12:11:50.827Z,22.43
2022-10-15T12:12:50.789Z,22.47
2022-10-15T12:13:50.783Z,22.47
2022-10-15T12:14:50.776Z,22.40
2022-10-15T12:15:50.761Z,22.47
2022-10-15T12:16:50.747Z,22.52
2022-10-15T12:17:50.733Z,22.39
2022-10-15T12:18:50.724Z,22.22
2022-10-15T12:19:50.712Z,22.02
2022-10-15T12:20:50.703Z,21.90
2022-10-15T12:21:50.690Z,21.96
2022-10-15T12:22:50.677Z,21.81
2022-10-15T12:23:50.666Z,21.62
2022-10-15T12:24:50.656Z,21.51
2022-10-15T12:25:50.646Z,21.47
2022-10-15T12:26:50.632Z,21.48
2022-10-15T12:27:50.648Z,21.71
2022-10-15T12:28:50.670Z,21.97
2022-10-15T12:29:50.601Z,22.05
2022-10-15T12:30:50.597Z,22.26
2022-10-15T12:31:50.576Z,22.37
2022-10-15T12:32:50.575Z,22.32
2022-10-15T12:33:50.556Z,22.24
2022-10-15T12:34:50.546Z,22.32
2022-10-15T12:35:50.533Z,22.26
2022-10-15T12:36:50.521Z,22.15
2022-10-15T12:37:50.510Z,22.00
2022-10-15T12:38:50.498Z,21.92
2022-10-15T12:39:52.816Z,21.89
2022-10-15T12:40:50.475Z,21.81
2022-10-15T12:41:50.468Z,21.73
2022-10-15T12:42:50.457Z,21.66
2022-10-15T12:43:50.470Z,21.58
2022-10-15T12:44:50.436Z,21.55
2022-10-15T12:45:50.428Z,21.67
2022-10-15T12:46:50.411Z,21.87
2022-10-15T12:47:50.422Z,22.05
2022-10-15T12:48:50.388Z,22.00
2022-10-15T12:49:50.375Z,21.80
2022-10-15T12:50:50.366Z,21.58
2022-10-15T12:51:53.904Z,21.40
2022-10-15T12:52:50.343Z,21.32
2022-10-15T12:53:50.341Z,21.28
2022-10-15T12:54:50.321Z,21.26